createdAt,value
2023-04-26T00:00:19.573Z,90
2023-04-26T00:01:26.489Z,80
2023-04-26T00:02:33.448Z,78
2023-04-26T00:03:40.664Z,77
2023-04-26T00:04:49.328Z,80
2023-04-26T00:05:59.085Z,78
2023-04-26T00:07:05.944Z,71
2023-04-26T00:08:12.819Z,72
2023-04-26T00:09:20.264Z,71
2023-04-26T00:10:28.198Z,66
2023-04-26T00:11:36.060Z,68
2023-04-26T00:12:42.846Z,57
2023-04-26T00:13:49.678Z,69
2023-04-26T00:14:56.532Z,80
2023-04-26T00:16:03.626Z,73
2023-04-26T00:17:12.155Z,69
2023-04-26T00:18:19.042Z,62
2023-04-26T00:19:29.123Z,55
2023-04-26T00:20:35.851Z,57
2023-04-26T00:21:44.489Z,61
2023-04-26T00:22:51.289Z,56
2023-04-26T00:23:58.166Z,54
2023-04-26T00:25:05.072Z,50
2023-04-26T00:26:12.480Z,39
2023-04-26T00:27:19.332Z,45
2023-04-26T00:28:28.833Z,50
2023-04-26T00:29:35.642Z,51
2023-04-26T00:30:42.409Z,45
2023-04-26T00:31:49.442Z,43
2023-04-26T00:32:56.350Z,51
2023-04-26T00:34:03.192Z,44
2023-04-26T00:35:10.098Z,46
2023-04-26T00:36:16.886Z,50
2023-04-26T00:37:23.753Z,38
2023-04-26T00:38:31.557Z,34
2023-04-26T00:39:38.369Z,42
2023-04-26T00:40:45.190Z,30
2023-04-26T00:41:52.027Z,25
2023-04-26T00:42:58.900Z,34
2023-04-26T00:44:06.709Z,25
2023-04-26T00:45:14.424Z,38
2023-04-26T00:46:21.381Z,43
2023-04-26T00:47:28.145Z,25
2023-04-26T00:48:34.979Z,40
2023-04-26T00:49:41.877Z,34
2023-04-26T00:50:48.792Z,26
2023-04-26T00:51:55.652Z,35
2023-04-26T00:53:02.496Z,30
2023-04-26T00:54:09.285Z,32
2023-04-26T00:55:16.115Z,38
2023-04-26T00:56:23.131Z,38
2023-04-26T00:57:30.232Z,32
2023-04-26T00:58:37.108Z,32
2023-04-26T00:59:43.944Z,36
2023-04-26T01:00:51.605Z,41
2023-04-26T01:01:58.705Z,33
2023-04-26T01:03:08.336Z,34
2023-04-26T01:04:15.322Z,43
2023-04-26T01:05:21.997Z,34
2023-04-26T01:06:28.960Z,30
2023-04-26T01:07:38.679Z,32
2023-04-26T01:08:46.620Z,40
2023-04-26T01:09:53.455Z,38
2023-04-26T01:11:00.359Z,40
2023-04-26T01:12:07.178Z,32
2023-04-26T01:13:13.952Z,41
2023-04-26T01:14:20.800Z,43
2023-04-26T01:15:27.630Z,53
2023-04-26T01:16:34.514Z,39
2023-04-26T01:17:41.541Z,45
2023-04-26T01:18:48.372Z,46
2023-04-26T01:19:55.198Z,44
2023-04-26T01:21:03.440Z,44
2023-04-26T01:22:08.894Z,36
2023-04-26T01:23:15.687Z,49
2023-04-26T01:24:23.441Z,55
2023-04-26T01:25:30.301Z,46
2023-04-26T01:26:37.145Z,51
2023-04-26T01:27:44.005Z,47
2023-04-26T01:28:51.175Z,54
2023-04-26T01:29:59.836Z,49
2023-04-26T01:31:07.579Z,43
2023-04-26T01:32:14.443Z,61
2023-04-26T01:33:21.900Z,66
2023-04-26T01:34:29.821Z,51
2023-04-26T01:35:36.622Z,54
2023-04-26T01:36:43.461Z,57
2023-04-26T01:37:52.194Z,52
2023-04-26T01:38:58.874Z,57
2023-04-26T01:40:05.670Z,54
2023-04-26T01:41:12.782Z,53
2023-04-26T01:42:19.581Z,46
2023-04-26T01:43:26.490Z,47
2023-04-26T01:44:33.358Z,51
2023-04-26T01:45:40.049Z,55
2023-04-26T01:46:46.981Z,51
2023-04-26T01:47:53.829Z,53
2023-04-26T01:49:00.692Z,55
2023-04-26T01:50:10.238Z,57
2023-04-26T01:51:17.144Z,61
2023-04-26T01:52:24.019Z,57
2023-04-26T01:53:30.866Z,50
2023-04-26T01:54:37.664Z,59
2023-04-26T01:55:44.537Z,66
2023-04-26T01:56:51.300Z,64
2023-04-26T01:57:58.073Z,61
2023-04-26T01:59:05.938Z,58
2023-04-26T02:00:12.812Z,62
2023-04-26T02:01:19.710Z,61
2023-04-26T02:02:26.628Z,72
2023-04-26T02:03:36.235Z,73
2023-04-26T02:04:43.044Z,67
2023-04-26T02:05:49.789Z,66
2023-04-26T02:06:56.656Z,69
2023-04-26T02:08:03.504Z,74
2023-04-26T02:09:11.274Z,73
2023-04-26T02:10:18.120Z,77
2023-04-26T02:11:25.045Z,69
2023-04-26T02:12:31.838Z,56
2023-04-26T02:13:38.682Z,69
2023-04-26T02:14:46.331Z,67
2023-04-26T02:15:55.031Z,72
2023-04-26T02:17:01.757Z,74
2023-04-26T02:18:08.552Z,69
2023-04-26T02:19:15.409Z,77
2023-04-26T02:20:23.922Z,68
2023-04-26T02:21:30.719Z,73
2023-04-26T02:22:37.660Z,69
2023-04-26T02:23:44.450Z,70
2023-04-26T02:24:51.326Z,75
2023-04-26T02:25:59.134Z,79
2023-04-26T02:27:05.926Z,73
2023-04-26T02:28:12.819Z,72
2023-04-26T02:29:24.613Z,76
2023-04-26T02:30:26.798Z,76
2023-04-26T02:31:33.593Z,76
2023-04-26T02:32:41.467Z,82
2023-04-26T02:33:48.239Z,76
2023-04-26T02:34:56.817Z,76
2023-04-26T02:36:03.698Z,76
2023-04-26T02:37:11.703Z,71
2023-04-26T02:38:18.540Z,84
2023-04-26T02:39:25.382Z,73
2023-04-26T02:40:32.226Z,79
2023-04-26T02:41:40.954Z,76
2023-04-26T02:42:48.092Z,64
2023-04-26T02:43:54.934Z,86
2023-04-26T02:45:01.798Z,80
2023-04-26T02:46:09.796Z,83
2023-04-26T02:47:16.546Z,76
2023-04-26T02:48:23.354Z,86
2023-04-26T02:49:30.297Z,86
2023-04-26T02:50:40.510Z,87
2023-04-26T02:51:47.523Z,81
2023-04-26T02:52:55.202Z,82
2023-04-26T02:54:02.050Z,90
2023-04-26T02:55:08.950Z,85
2023-04-26T02:56:15.851Z,87
2023-04-26T02:57:22.900Z,82
2023-04-26T02:58:29.821Z,86
2023-04-26T02:59:36.742Z,84
2023-04-26T03:00:43.674Z,90
2023-04-26T03:01:51.387Z,80
2023-04-26T03:02:58.302Z,92
2023-04-26T03:04:05.466Z,78
2023-04-26T03:05:12.189Z,75
2023-04-26T03:06:19.051Z,86
2023-04-26T03:07:26.720Z,82
2023-04-26T03:08:34.355Z,83
2023-04-26T03:09:41.239Z,83
2023-04-26T03:10:48.956Z,96
2023-04-26T03:11:56.004Z,89
2023-04-26T03:13:02.839Z,89
2023-04-26T03:14:09.716Z,87
2023-04-26T03:15:16.543Z,83
2023-04-26T03:16:23.913Z,84
2023-04-26T03:17:30.568Z,90
2023-04-26T03:18:37.372Z,87
2023-04-26T03:19:47.338Z,87
2023-04-26T03:20:54.204Z,91
2023-04-26T03:22:01.029Z,84
2023-04-26T03:23:07.823Z,82
2023-04-26T03:24:14.917Z,83
2023-04-26T03:25:22.780Z,88
2023-04-26T03:26:29.648Z,88
2023-04-26T03:27:36.477Z,82
2023-04-26T03:28:43.292Z,88
2023-04-26T03:29:50.304Z,88
2023-04-26T03:30:57.166Z,85
2023-04-26T03:32:08.869Z,85
2023-04-26T03:33:15.900Z,90
2023-04-26T03:34:24.767Z,89
2023-04-26T03:35:31.589Z,89
2023-04-26T03:36:38.521Z,81
2023-04-26T03:37:45.308Z,79
2023-04-26T03:38:52.319Z,84
2023-04-26T03:39:59.206Z,84
2023-04-26T03:41:06.057Z,83
2023-04-26T03:42:12.944Z,85
2023-04-26T03:43:19.762Z,88
2023-04-26T03:44:26.561Z,81
2023-04-26T03:45:33.600Z,84
2023-04-26T03:46:40.269Z,84
2023-04-26T03:47:47.190Z,85
2023-04-26T03:48:54.090Z,75
2023-04-26T03:50:00.891Z,84
2023-04-26T03:51:07.775Z,85
2023-04-26T03:52:16.292Z,79
2023-04-26T03:53:23.089Z,76
2023-04-26T03:54:29.952Z,81
2023-04-26T03:55:36.849Z,87
2023-04-26T03:56:44.615Z,89
2023-04-26T03:57:51.583Z,83
2023-04-26T03:58:58.463Z,94
2023-04-26T04:00:07.014Z,93
2023-04-26T04:01:16.598Z,94
2023-04-26T04:02:23.498Z,85
2023-04-26T04:03:33.220Z,89
2023-04-26T04:04:40.067Z,81
2023-04-26T04:05:47.100Z,85
2023-04-26T04:06:53.925Z,82
2023-04-26T04:08:00.788Z,82
2023-04-26T04:09:07.640Z,81
2023-04-26T04:10:16.227Z,90
2023-04-26T04:11:23.033Z,91
2023-04-26T04:12:29.880Z,93
2023-04-26T04:13:37.676Z,92
2023-04-26T04:14:44.511Z,96
2023-04-26T04:15:51.350Z,89
2023-04-26T04:16:58.174Z,94
2023-04-26T04:18:07.383Z,96
2023-04-26T04:19:14.183Z,93
2023-04-26T04:20:21.069Z,93
2023-04-26T04:21:27.994Z,90
2023-04-26T04:22:34.816Z,93
2023-04-26T04:23:41.622Z,84
2023-04-26T04:24:48.464Z,97
2023-04-26T04:25:55.416Z,94
2023-04-26T04:27:02.349Z,101
2023-04-26T04:28:09.180Z,97
2023-04-26T04:29:16.109Z,89
2023-04-26T04:30:22.951Z,91
2023-04-26T04:31:29.869Z,92
2023-04-26T04:32:44.540Z,105
2023-04-26T04:33:51.337Z,110
2023-04-26T04:34:59.419Z,110
2023-04-26T04:36:06.500Z,106
2023-04-26T04:37:13.287Z,92
2023-04-26T04:38:20.075Z,92
2023-04-26T04:39:27.368Z,98
2023-04-26T04:40:34.170Z,104
2023-04-26T04:41:41.988Z,102
2023-04-26T04:42:48.843Z,102
2023-04-26T04:43:55.624Z,106
2023-04-26T04:45:03.554Z,108
2023-04-26T04:46:12.913Z,100
2023-04-26T04:47:19.113Z,109
2023-04-26T04:48:26.004Z,107
2023-04-26T04:49:32.978Z,98
2023-04-26T04:50:39.827Z,104
2023-04-26T04:51:46.664Z,112
2023-04-26T04:52:53.494Z,109
2023-04-26T04:54:00.387Z,101
2023-04-26T04:55:13.863Z,111
2023-04-26T04:56:21.207Z,111
2023-04-26T04:57:29.671Z,107
2023-04-26T04:58:36.570Z,114
2023-04-26T04:59:43.404Z,97
2023-04-26T05:00:50.237Z,105
2023-04-26T05:01:58.412Z,97
2023-04-26T05:03:05.331Z,98
2023-04-26T05:04:12.078Z,104
2023-04-26T05:05:18.858Z,102
2023-04-26T05:06:25.634Z,107
2023-04-26T05:07:32.604Z,98
2023-04-26T05:08:39.293Z,99
2023-04-26T05:09:49.041Z,96
2023-04-26T05:10:55.904Z,88
2023-04-26T05:12:02.914Z,93
2023-04-26T05:13:09.786Z,88
2023-04-26T05:14:16.630Z,92
2023-04-26T05:15:23.442Z,87
2023-04-26T05:16:30.297Z,86
2023-04-26T05:17:37.394Z,82
2023-04-26T05:18:45.251Z,86
2023-04-26T05:19:52.031Z,83
2023-04-26T05:20:58.846Z,96
2023-04-26T05:22:05.677Z,92
2023-04-26T05:23:14.257Z,81
2023-04-26T05:24:21.432Z,82
2023-04-26T05:25:28.361Z,86
2023-04-26T05:26:35.141Z,78
2023-04-26T05:27:41.975Z,81
2023-04-26T05:28:48.831Z,84
2023-04-26T05:29:55.643Z,80
2023-04-26T05:31:02.601Z,81
2023-04-26T05:32:09.512Z,88
2023-04-26T05:33:16.342Z,82
2023-04-26T05:34:23.163Z,79
2023-04-26T05:35:31.908Z,70
2023-04-26T05:36:38.836Z,73
2023-04-26T05:37:45.794Z,75
2023-04-26T05:38:52.646Z,76
2023-04-26T05:39:59.468Z,80
2023-04-26T05:41:06.344Z,73
2023-04-26T05:42:17.591Z,72
2023-04-26T05:43:22.131Z,68
2023-04-26T05:44:28.999Z,71
2023-04-26T05:45:35.913Z,75
2023-04-26T05:46:42.671Z,64
2023-04-26T05:47:50.420Z,76
2023-04-26T05:48:57.256Z,64
2023-04-26T05:50:05.959Z,54
2023-04-26T05:51:13.315Z,63
2023-04-26T05:52:20.174Z,67
2023-04-26T05:53:29.740Z,68
2023-04-26T05:54:36.606Z,60
2023-04-26T05:55:43.655Z,58
2023-04-26T05:56:50.650Z,80
2023-04-26T05:57:57.498Z,73
2023-04-26T05:59:04.511Z,54
2023-04-26T06:00:11.309Z,54
2023-04-26T06:01:18.498Z,67
2023-04-26T06:02:29.196Z,38
2023-04-26T06:03:36.014Z,44
2023-04-26T06:04:43.049Z,28
2023-04-26T06:05:50.845Z,37
2023-04-26T06:06:57.636Z,33
2023-04-26T06:08:04.449Z,27
2023-04-26T06:09:13.544Z,25
2023-04-26T06:10:20.496Z,38
2023-04-26T06:11:27.329Z,41
2023-04-26T06:12:34.237Z,42
2023-04-26T06:13:42.131Z,28
2023-04-26T06:14:48.957Z,34
2023-04-26T06:15:59.045Z,42
2023-04-26T06:17:06.007Z,30
2023-04-26T06:18:12.824Z,29
2023-04-26T06:19:19.614Z,26
2023-04-26T06:20:27.601Z,33
2023-04-26T06:21:34.449Z,33
2023-04-26T06:22:41.308Z,30
2023-04-26T06:23:51.982Z,25
2023-04-26T06:24:58.493Z,26
2023-04-26T06:26:05.315Z,33
2023-04-26T06:27:12.167Z,25
2023-04-26T06:28:20.631Z,42
2023-04-26T06:29:27.541Z,32
2023-04-26T06:30:35.249Z,29
2023-04-26T06:31:42.106Z,36
2023-04-26T06:32:49.012Z,25
2023-04-26T06:33:55.939Z,37
2023-04-26T06:35:03.430Z,28
2023-04-26T06:36:10.521Z,42
2023-04-26T06:37:17.311Z,33
2023-04-26T06:38:24.070Z,25
2023-04-26T06:39:30.827Z,30
2023-04-26T06:40:37.715Z,29
2023-04-26T06:41:44.530Z,31
2023-04-26T06:42:51.353Z,58
2023-04-26T06:43:58.147Z,40
2023-04-26T06:45:04.890Z,31
2023-04-26T06:46:12.260Z,25
2023-04-26T06:47:19.146Z,40
2023-04-26T06:48:25.834Z,38
2023-04-26T06:49:32.660Z,31
2023-04-26T06:50:39.425Z,35
2023-04-26T06:51:46.278Z,39
2023-04-26T06:52:53.280Z,53
2023-04-26T06:54:00.109Z,41
2023-04-26T06:55:06.932Z,43
2023-04-26T06:56:13.764Z,28
2023-04-26T06:57:20.628Z,32
2023-04-26T06:58:37.523Z,31
2023-04-26T06:59:41.484Z,28
2023-04-26T07:00:48.322Z,28
2023-04-26T07:01:55.267Z,32
2023-04-26T07:03:02.084Z,37
2023-04-26T07:04:10.001Z,30
2023-04-26T07:05:17.571Z,25
2023-04-26T07:06:24.318Z,25
2023-04-26T07:07:32.198Z,34
2023-04-26T07:08:39.271Z,44
2023-04-26T07:09:46.213Z,40
2023-04-26T07:10:53.077Z,33
2023-04-26T07:11:59.896Z,43
2023-04-26T07:13:09.358Z,49
2023-04-26T07:14:14.407Z,42
2023-04-26T07:15:21.269Z,29
2023-04-26T07:16:28.104Z,46
2023-04-26T07:17:34.906Z,42
2023-04-26T07:18:41.672Z,39
2023-04-26T07:19:48.483Z,37
2023-04-26T07:20:56.409Z,38
2023-04-26T07:22:03.231Z,35
2023-04-26T07:23:10.026Z,25
2023-04-26T07:24:16.905Z,38
2023-04-26T07:25:23.721Z,31
2023-04-26T07:26:33.052Z,27
2023-04-26T07:27:40.047Z,25
2023-04-26T07:28:46.952Z,34
2023-04-26T07:29:56.921Z,27
2023-04-26T07:31:03.712Z,36
2023-04-26T07:32:10.616Z,25
2023-04-26T07:33:17.584Z,29
2023-04-26T07:34:24.323Z,34
2023-04-26T07:35:31.107Z,29
2023-04-26T07:36:37.888Z,30
2023-04-26T07:37:44.675Z,40
2023-04-26T07:38:51.544Z,47
2023-04-26T07:39:58.272Z,45
2023-04-26T07:41:06.415Z,36
2023-04-26T07:42:14.169Z,41
2023-04-26T07:43:20.921Z,39
2023-04-26T07:44:27.653Z,25
2023-04-26T07:45:34.575Z,29
2023-04-26T07:46:41.334Z,31
2023-04-26T07:47:48.285Z,27
2023-04-26T07:48:55.002Z,37
2023-04-26T07:50:01.882Z,34
2023-04-26T07:51:08.928Z,38
2023-04-26T07:52:15.942Z,33
2023-04-26T07:53:22.840Z,41
2023-04-26T07:54:29.728Z,43
2023-04-26T07:55:36.486Z,46
2023-04-26T07:56:44.186Z,40
2023-04-26T07:57:51.271Z,43
2023-04-26T07:58:58.204Z,41
2023-04-26T08:00:08.100Z,48
2023-04-26T08:01:17.166Z,45
2023-04-26T08:02:37.132Z,43
2023-04-26T08:03:32.978Z,41
2023-04-26T08:04:39.921Z,30
2023-04-26T08:05:46.718Z,25
2023-04-26T08:06:54.134Z,32
2023-04-26T08:08:01.056Z,25
2023-04-26T08:09:08.068Z,25
2023-04-26T08:10:15.043Z,27
2023-04-26T08:11:21.916Z,33
2023-04-26T08:12:28.705Z,29
2023-04-26T08:13:35.543Z,25
2023-04-26T08:14:42.512Z,32
2023-04-26T08:15:49.326Z,52
2023-04-26T08:16:56.217Z,50
2023-04-26T08:18:03.178Z,91
2023-04-26T08:19:10.068Z,79
2023-04-26T08:20:17.826Z,91
2023-04-26T08:21:24.666Z,37
2023-04-26T08:22:31.431Z,26
2023-04-26T08:23:38.459Z,38
2023-04-26T08:24:45.282Z,52
2023-04-26T08:25:52.552Z,54
2023-04-26T08:26:59.111Z,45
2023-04-26T08:28:05.916Z,47
2023-04-26T08:29:12.723Z,29
2023-04-26T08:30:19.508Z,32
2023-04-26T08:31:26.359Z,59
2023-04-26T08:32:33.396Z,46
2023-04-26T08:33:40.159Z,53
2023-04-26T08:34:46.950Z,55
2023-04-26T08:35:53.785Z,63
2023-04-26T08:37:00.614Z,43
2023-04-26T08:38:07.722Z,25
2023-04-26T08:39:14.572Z,37
2023-04-26T08:40:21.409Z,26
2023-04-26T08:41:28.301Z,46
2023-04-26T08:42:36.963Z,49
2023-04-26T08:43:41.971Z,31
2023-04-26T08:44:48.867Z,61
2023-04-26T08:45:55.730Z,45
2023-04-26T08:47:02.463Z,37
2023-04-26T08:48:17.428Z,41
2023-04-26T08:49:24.144Z,28
2023-04-26T08:50:33.773Z,45
2023-04-26T08:51:40.586Z,50
2023-04-26T08:52:47.373Z,31
2023-04-26T08:53:54.489Z,43
2023-04-26T08:55:01.398Z,48
2023-04-26T08:56:08.451Z,35
2023-04-26T08:57:15.267Z,42
2023-04-26T08:58:22.087Z,42
2023-04-26T08:59:28.852Z,68
2023-04-26T09:00:35.782Z,62
2023-04-26T09:01:42.591Z,78
2023-04-26T09:02:49.624Z,72
2023-04-26T09:03:56.813Z,53
2023-04-26T09:05:03.273Z,47
2023-04-26T09:06:10.181Z,57
2023-04-26T09:07:16.982Z,66
2023-04-26T09:08:31.758Z,47
2023-04-26T09:09:38.643Z,33
2023-04-26T09:10:45.437Z,25
2023-04-26T09:11:52.214Z,38
2023-04-26T09:13:02.117Z,50
2023-04-26T09:14:08.719Z,40
2023-04-26T09:15:15.512Z,47
2023-04-26T09:16:22.448Z,31
2023-04-26T09:17:39.593Z,45
2023-04-26T09:18:46.332Z,35
2023-04-26T09:19:53.144Z,42
2023-04-26T09:21:00.068Z,43
2023-04-26T09:22:06.921Z,37
2023-04-26T09:23:13.755Z,61
2023-04-26T09:24:20.537Z,46
2023-04-26T09:25:27.273Z,46
2023-04-26T09:26:34.146Z,33
2023-04-26T09:27:41.104Z,59
2023-04-26T09:28:48.104Z,50
2023-04-26T09:29:54.791Z,46
2023-04-26T09:31:06.759Z,44
2023-04-26T09:32:13.489Z,54
2023-04-26T09:33:20.332Z,55
2023-04-26T09:34:27.103Z,55
2023-04-26T09:35:34.050Z,51
2023-04-26T09:36:40.799Z,39
2023-04-26T09:37:58.682Z,43
2023-04-26T09:39:06.507Z,49
2023-04-26T09:40:13.347Z,51
2023-04-26T09:41:23.013Z,65
2023-04-26T09:42:29.846Z,57
2023-04-26T09:43:36.622Z,53
2023-04-26T09:44:43.453Z,40
2023-04-26T09:45:50.580Z,25
2023-04-26T09:46:59.787Z,27
2023-04-26T09:48:09.541Z,25
2023-04-26T09:49:22.395Z,32
2023-04-26T09:50:29.297Z,37
2023-04-26T09:51:36.174Z,38
2023-04-26T09:52:43.081Z,43
2023-04-26T09:53:50.083Z,45
2023-04-26T09:54:56.878Z,25
2023-04-26T09:56:03.742Z,26
2023-04-26T09:57:16.084Z,37
2023-04-26T09:58:22.948Z,25
2023-04-26T09:59:29.710Z,29
2023-04-26T10:00:44.749Z,40
2023-04-26T10:01:51.482Z,50
2023-04-26T10:02:58.407Z,43
2023-04-26T10:04:05.221Z,63
2023-04-26T10:05:11.927Z,64
2023-04-26T10:06:18.762Z,56
2023-04-26T10:07:25.545Z,76
2023-04-26T10:08:32.330Z,64
2023-04-26T10:09:39.194Z,79
2023-04-26T10:10:46.034Z,55
2023-04-26T10:11:52.860Z,66
2023-04-26T10:12:59.617Z,64
2023-04-26T10:14:06.448Z,78
2023-04-26T10:15:13.428Z,73
2023-04-26T10:16:20.409Z,66
2023-04-26T10:17:27.136Z,57
2023-04-26T10:18:33.976Z,55
2023-04-26T10:19:40.771Z,50
2023-04-26T10:20:47.546Z,67
2023-04-26T10:21:54.325Z,87
2023-04-26T10:23:01.145Z,73
2023-04-26T10:24:07.898Z,69
2023-04-26T10:25:14.645Z,53
2023-04-26T10:26:22.514Z,39
2023-04-26T10:27:39.807Z,31
2023-04-26T10:28:46.650Z,28
2023-04-26T10:29:53.444Z,37
2023-04-26T10:31:00.361Z,54
2023-04-26T10:32:07.501Z,57
2023-04-26T10:33:14.241Z,49
2023-04-26T10:34:21.011Z,58
2023-04-26T10:35:27.863Z,71
2023-04-26T10:36:34.645Z,76
2023-04-26T10:37:42.406Z,88
2023-04-26T10:38:59.540Z,75
2023-04-26T10:40:17.589Z,91
2023-04-26T10:41:34.805Z,84
2023-04-26T10:42:42.393Z,82
2023-04-26T10:43:49.170Z,68
2023-04-26T10:44:56.059Z,77
2023-04-26T10:46:03.061Z,82
2023-04-26T10:47:20.256Z,49
2023-04-26T10:48:29.987Z,57
2023-04-26T10:49:36.752Z,48
2023-04-26T10:50:46.474Z,49
2023-04-26T10:52:03.704Z,49
2023-04-26T10:53:15.753Z,58
2023-04-26T10:54:22.833Z,53
2023-04-26T10:55:29.655Z,52
2023-04-26T10:56:42.264Z,52
2023-04-26T10:57:51.832Z,42
2023-04-26T10:58:58.670Z,55
2023-04-26T11:00:10.926Z,52
2023-04-26T11:01:20.718Z,48
2023-04-26T11:02:28.449Z,25
2023-04-26T11:03:45.548Z,32
2023-04-26T11:05:01.152Z,37
2023-04-26T11:06:08.066Z,42
2023-04-26T11:07:17.575Z,77
2023-04-26T11:08:34.881Z,72
2023-04-26T11:09:43.809Z,37
2023-04-26T11:10:53.471Z,25
2023-04-26T11:12:05.456Z,58
2023-04-26T11:13:14.961Z,75
2023-04-26T11:14:21.938Z,64
2023-04-26T11:15:28.878Z,84
2023-04-26T11:16:35.874Z,60
2023-04-26T11:17:42.695Z,85
2023-04-26T11:18:49.527Z,97
2023-04-26T11:19:56.403Z,87
2023-04-26T11:21:04.008Z,86
2023-04-26T11:22:10.784Z,77
2023-04-26T11:23:17.583Z,36
2023-04-26T11:24:24.403Z,33
2023-04-26T11:25:31.278Z,72
2023-04-26T11:26:38.310Z,62
2023-04-26T11:27:45.224Z,51
2023-04-26T11:28:52.225Z,49
2023-04-26T11:29:58.972Z,29
2023-04-26T11:31:06.716Z,37
2023-04-26T11:32:13.454Z,65
2023-04-26T11:33:20.384Z,53
2023-04-26T11:34:27.150Z,58
2023-04-26T11:35:40.016Z,94
2023-04-26T11:36:46.817Z,87
2023-04-26T11:37:54.519Z,99
2023-04-26T11:39:01.498Z,80
2023-04-26T11:40:08.322Z,87
2023-04-26T11:41:15.405Z,78
2023-04-26T11:42:22.537Z,57
2023-04-26T11:43:29.336Z,69
2023-04-26T11:44:36.120Z,89
2023-04-26T11:45:42.892Z,100
2023-04-26T11:46:49.781Z,83
2023-04-26T11:47:56.602Z,81
2023-04-26T11:49:03.466Z,75
2023-04-26T11:50:10.250Z,92
2023-04-26T11:51:17.064Z,71
2023-04-26T11:52:23.889Z,71
2023-04-26T11:53:30.770Z,62
2023-04-26T11:54:43.413Z,96
2023-04-26T11:55:50.367Z,86
2023-04-26T11:56:57.189Z,85
2023-04-26T11:58:04.038Z,74
2023-04-26T11:59:13.582Z,68
2023-04-26T12:00:20.374Z,70
2023-04-26T12:01:27.520Z,73
2023-04-26T12:02:34.407Z,63
2023-04-26T12:03:41.508Z,74
2023-04-26T12:04:48.563Z,67
2023-04-26T12:05:55.010Z,74
2023-04-26T12:07:01.829Z,87
2023-04-26T12:08:08.633Z,73
2023-04-26T12:09:15.514Z,92
2023-04-26T12:10:22.272Z,81
2023-04-26T12:11:29.237Z,76
2023-04-26T12:12:36.067Z,58
2023-04-26T12:13:42.908Z,50
2023-04-26T12:14:49.765Z,89
2023-04-26T12:15:56.736Z,38
2023-04-26T12:17:03.735Z,36
2023-04-26T12:18:10.762Z,68
2023-04-26T12:19:17.066Z,41
2023-04-26T12:20:24.062Z,66
2023-04-26T12:21:36.073Z,54
2023-04-26T12:22:45.533Z,44
2023-04-26T12:24:00.570Z,66
2023-04-26T12:25:07.552Z,41
2023-04-26T12:26:14.452Z,71
2023-04-26T12:27:21.389Z,69
2023-04-26T12:28:28.287Z,68
2023-04-26T12:29:35.067Z,75
2023-04-26T12:30:41.942Z,70
2023-04-26T12:31:48.843Z,48
2023-04-26T12:32:57.792Z,48
2023-04-26T12:34:03.538Z,61
2023-04-26T12:35:10.279Z,69
2023-04-26T12:36:17.130Z,52
2023-04-26T12:37:23.975Z,37
2023-04-26T12:38:30.767Z,27
2023-04-26T12:39:37.714Z,25
2023-04-26T12:40:47.370Z,39
2023-04-26T12:41:54.257Z,67
2023-04-26T12:43:01.077Z,31
2023-04-26T12:44:07.929Z,85
2023-04-26T12:45:14.698Z,75
2023-04-26T12:46:21.598Z,60
2023-04-26T12:47:28.491Z,57
2023-04-26T12:48:35.269Z,55
2023-04-26T12:49:42.061Z,59
2023-04-26T12:50:50.152Z,34
2023-04-26T12:51:55.808Z,93
2023-04-26T12:53:03.034Z,79
2023-04-26T12:54:09.875Z,61
2023-04-26T12:55:16.800Z,56
2023-04-26T12:56:23.530Z,48
2023-04-26T12:57:30.593Z,69
2023-04-26T12:58:37.487Z,84
2023-04-26T12:59:44.259Z,71
2023-04-26T13:00:51.061Z,71
2023-04-26T13:01:57.947Z,84
2023-04-26T13:03:04.798Z,105
2023-04-26T13:04:11.745Z,92
2023-04-26T13:05:18.331Z,74
2023-04-26T13:06:25.128Z,78
2023-04-26T13:07:32.013Z,97
2023-04-26T13:08:38.828Z,102
2023-04-26T13:09:45.630Z,95
2023-04-26T13:10:52.509Z,92
2023-04-26T13:11:59.246Z,123
2023-04-26T13:13:06.100Z,121
2023-04-26T13:14:13.750Z,111
2023-04-26T13:15:20.716Z,101
2023-04-26T13:16:27.660Z,102
2023-04-26T13:17:34.357Z,99
2023-04-26T13:18:41.175Z,101
2023-04-26T13:19:47.986Z,108
2023-04-26T13:20:54.947Z,96
2023-04-26T13:22:01.824Z,104
2023-04-26T13:23:08.619Z,71
2023-04-26T13:24:15.428Z,82
2023-04-26T13:25:22.217Z,65
2023-04-26T13:26:29.230Z,55
2023-04-26T13:27:36.071Z,84
2023-04-26T13:28:42.867Z,67
2023-04-26T13:29:49.748Z,88
2023-04-26T13:30:56.540Z,95
2023-04-26T13:32:03.566Z,65
2023-04-26T13:33:10.521Z,60
2023-04-26T13:34:17.330Z,66
2023-04-26T13:35:24.176Z,77
2023-04-26T13:36:30.935Z,58
2023-04-26T13:37:37.875Z,91
2023-04-26T13:38:44.757Z,77
2023-04-26T13:39:51.522Z,57
2023-04-26T13:40:58.361Z,50
2023-04-26T13:42:05.271Z,56
2023-04-26T13:43:12.130Z,50
2023-04-26T13:44:19.165Z,88
2023-04-26T13:45:25.995Z,66
2023-04-26T13:46:32.874Z,59
2023-04-26T13:47:39.764Z,48
2023-04-26T13:48:46.519Z,78
2023-04-26T13:49:53.373Z,75
2023-04-26T13:51:00.263Z,71
2023-04-26T13:52:07.228Z,66
2023-04-26T13:53:14.048Z,26
2023-04-26T13:54:20.903Z,36
2023-04-26T13:55:28.746Z,68
2023-04-26T13:56:35.592Z,76
2023-04-26T13:57:42.434Z,73
2023-04-26T13:58:49.231Z,55
2023-04-26T13:59:56.076Z,70
2023-04-26T14:01:02.994Z,51
2023-04-26T14:02:09.897Z,49
2023-04-26T14:03:16.746Z,43
2023-04-26T14:04:23.651Z,41
2023-04-26T14:05:30.404Z,25
2023-04-26T14:06:37.332Z,42
2023-04-26T14:07:44.250Z,51
2023-04-26T14:08:51.031Z,40
2023-04-26T14:09:57.860Z,35
2023-04-26T14:11:04.630Z,48
2023-04-26T14:12:11.436Z,56
2023-04-26T14:13:18.232Z,57
2023-04-26T14:14:33.248Z,56
2023-04-26T14:15:44.110Z,33
2023-04-26T14:16:51.013Z,33
2023-04-26T14:17:57.894Z,40
2023-04-26T14:19:04.782Z,45
2023-04-26T14:20:11.667Z,43
2023-04-26T14:21:18.444Z,39
2023-04-26T14:22:25.254Z,51
2023-04-26T14:23:32.166Z,48
2023-04-26T14:24:38.999Z,25
2023-04-26T14:25:45.761Z,66
2023-04-26T14:26:55.205Z,49
2023-04-26T14:28:02.079Z,38
2023-04-26T14:29:08.922Z,54
2023-04-26T14:30:15.815Z,37
2023-04-26T14:31:22.708Z,42
2023-04-26T14:32:29.536Z,61
2023-04-26T14:33:36.233Z,39
2023-04-26T14:34:43.222Z,58
2023-04-26T14:35:49.945Z,44
2023-04-26T14:36:56.798Z,58
2023-04-26T14:38:03.678Z,67
2023-04-26T14:39:10.567Z,77
2023-04-26T14:40:17.342Z,74
2023-04-26T14:41:24.323Z,81
2023-04-26T14:42:31.295Z,94
2023-04-26T14:43:38.080Z,99
2023-04-26T14:44:44.929Z,102
2023-04-26T14:45:51.653Z,97
2023-04-26T14:46:58.426Z,85
2023-04-26T14:48:05.335Z,100
2023-04-26T14:49:12.064Z,98
2023-04-26T14:50:18.891Z,79
2023-04-26T14:51:25.663Z,92
2023-04-26T14:52:32.505Z,100
2023-04-26T14:53:39.466Z,89
2023-04-26T14:54:46.261Z,100
2023-04-26T14:55:53.053Z,77
2023-04-26T14:57:02.863Z,80
2023-04-26T14:58:09.504Z,106
2023-04-26T14:59:16.322Z,102
2023-04-26T15:00:23.214Z,94
2023-04-26T15:01:30.103Z,99
2023-04-26T15:02:36.951Z,85
2023-04-26T15:03:43.829Z,78
2023-04-26T15:04:50.656Z,73
2023-04-26T15:05:57.239Z,86
2023-04-26T15:07:04.241Z,66
2023-04-26T15:08:11.041Z,72
2023-04-26T15:09:17.968Z,87
2023-04-26T15:10:24.762Z,57
2023-04-26T15:11:32.571Z,70
2023-04-26T15:12:39.412Z,44
2023-04-26T15:13:46.217Z,73
2023-04-26T15:14:53.004Z,79
2023-04-26T15:15:59.804Z,43
2023-04-26T15:17:06.604Z,58
2023-04-26T15:18:13.531Z,57
2023-04-26T15:19:20.248Z,80
2023-04-26T15:20:26.999Z,64
2023-04-26T15:21:33.795Z,80
2023-04-26T15:22:40.611Z,74
2023-04-26T15:23:47.505Z,70
2023-04-26T15:24:54.266Z,74
2023-04-26T15:26:01.030Z,78
2023-04-26T15:27:07.881Z,89
2023-04-26T15:28:15.930Z,80
2023-04-26T15:29:21.678Z,87
2023-04-26T15:30:28.547Z,72
2023-04-26T15:31:35.354Z,67
2023-04-26T15:32:42.226Z,75
2023-04-26T15:33:52.026Z,53
2023-04-26T15:34:58.890Z,56
2023-04-26T15:36:05.788Z,51
2023-04-26T15:37:12.928Z,54
2023-04-26T15:38:19.711Z,58
2023-04-26T15:39:26.542Z,64
2023-04-26T15:40:33.408Z,51
2023-04-26T15:41:40.355Z,64
2023-04-26T15:42:47.211Z,67
2023-04-26T15:43:54.096Z,43
2023-04-26T15:45:00.923Z,61
2023-04-26T15:46:08.025Z,56
2023-04-26T15:47:17.557Z,55
2023-04-26T15:48:24.361Z,60
2023-04-26T15:49:31.300Z,56
2023-04-26T15:50:39.293Z,52
2023-04-26T15:51:46.102Z,54
2023-04-26T15:52:52.957Z,54
2023-04-26T15:54:12.870Z,50
2023-04-26T15:55:20.234Z,52
2023-04-26T15:56:27.092Z,50
2023-04-26T15:57:33.921Z,50
2023-04-26T15:58:42.265Z,53
2023-04-26T15:59:47.528Z,51